Time;durP1;ratioP1;P1;durP2;ratioP2;P2;SDS_P1;SDS_P2;PMS_P1;PMS_P2;Temp;Humidity;BMP_temperature;BMP_pressure;BME280_temperature;BME280_humidity;BME280_pressure;Samples;Min_cycle;Max_cycle;Signal;HPM_P1;HPM_P2
2021/04/07 00:00:18;;;;;;;10.65;2.17;;;-0.80;97.80;;;;;;5068829;28;20032;-78
2021/04/07 00:02:44;;;;;;;10.68;1.92;;;-0.80;97.90;;;;;;5080166;28;20052;-78
2021/04/07 00:05:13;;;;;;;9.32;1.70;;;-0.80;98.00;;;;;;5068295;28;20036;-78
2021/04/07 00:07:39;;;;;;;10.45;1.98;;;-0.80;98.10;;;;;;5072129;28;20090;-78
2021/04/07 00:10:11;;;;;;;15.35;2.13;;;-0.80;98.10;;;;;;5069808;28;20044;-78
2021/04/07 00:12:37;;;;;;;4.70;1.60;;;-0.80;98.00;;;;;;5071069;28;20093;-78
2021/04/07 00:15:08;;;;;;;11.05;1.85;;;-0.80;98.20;;;;;;5071096;28;20037;-78
2021/04/07 00:17:34;;;;;;;11.43;2.10;;;-0.80;98.10;;;;;;5072594;28;20032;-78
2021/04/07 00:19:59;;;;;;;16.52;1.98;;;-0.80;97.90;;;;;;5079155;28;20083;-78
2021/04/07 00:22:25;;;;;;;10.63;1.88;;;-0.80;97.90;;;;;;5068395;28;20032;-78
2021/04/07 00:24:51;;;;;;;8.63;1.77;;;-0.80;97.90;;;;;;5073208;28;20467;-78
2021/04/07 00:27:18;;;;;;;17.40;2.88;;;-0.80;97.90;;;;;;5067302;28;20036;-78
2021/04/07 00:29:44;;;;;;;8.45;1.45;;;-0.90;97.90;;;;;;5072949;28;20037;-77
2021/04/07 00:32:10;;;;;;;14.75;2.42;;;-0.80;98.00;;;;;;5070574;28;20062;-78
2021/04/07 00:34:35;;;;;;;11.30;2.30;;;-0.90;98.00;;;;;;5082408;28;20452;-78
2021/04/07 00:37:01;;;;;;;13.27;2.03;;;-0.80;98.00;;;;;;5081509;28;20028;-78
2021/04/07 00:39:27;;;;;;;15.05;2.92;;;-0.80;98.10;;;;;;5073405;28;20478;-77
2021/04/07 00:41:53;;;;;;;13.25;2.25;;;-0.90;98.10;;;;;;5071906;28;20059;-78
2021/04/07 00:44:19;;;;;;;9.63;1.75;;;-0.90;98.00;;;;;;5081324;28;20058;-77
2021/04/07 00:46:45;;;;;;;7.55;1.80;;;-0.90;98.00;;;;;;5069017;28;20130;-77
2021/04/07 00:49:11;;;;;;;13.65;1.83;;;-0.90;98.20;;;;;;5078137;28;20043;-78
2021/04/07 00:51:41;;;;;;;12.52;2.10;;;-0.90;98.10;;;;;;5073524;28;20043;-77
2021/04/07 00:54:07;;;;;;;12.18;2.40;;;-0.90;98.20;;;;;;5066186;28;20123;-78
2021/04/07 00:56:33;;;;;;;15.68;1.45;;;-0.90;98.10;;;;;;5072702;28;20429;-77
2021/04/07 00:58:59;;;;;;;10.30;2.20;;;-0.90;98.40;;;;;;5068388;28;20051;-77
2021/04/07 01:01:24;;;;;;;12.30;1.98;;;-0.90;98.30;;;;;;5079886;28;20087;-77
2021/04/07 01:03:50;;;;;;;12.20;2.50;;;-0.80;98.30;;;;;;5073681;28;20052;-77
2021/04/07 01:06:17;;;;;;;15.52;1.73;;;-0.80;98.60;;;;;;5080085;28;20040;-77
2021/04/07 01:08:42;;;;;;;11.80;1.83;;;-0.70;98.80;;;;;;5069706;28;20043;-77
2021/04/07 01:11:08;;;;;;;13.35;1.60;;;-0.70;98.90;;;;;;5074513;28;20730;-76
2021/04/07 01:13:34;;;;;;;16.90;1.80;;;-0.60;98.90;;;;;;5069651;28;20040;-78
2021/04/07 01:16:00;;;;;;;9.48;1.55;;;-0.60;98.90;;;;;;5075938;28;20044;-78
2021/04/07 01:18:26;;;;;;;9.05;1.80;;;-0.60;99.30;;;;;;5072271;28;20384;-78
2021/04/07 01:20:53;;;;;;;11.73;1.60;;;-0.50;99.30;;;;;;5063510;28;20399;-77
2021/04/07 01:23:19;;;;;;;9.43;1.60;;;-0.50;99.20;;;;;;5066853;28;20056;-77
2021/04/07 01:25:45;;;;;;;11.98;1.55;;;-0.50;99.00;;;;;;5076361;28;20099;-77
2021/04/07 01:28:11;;;;;;;14.43;1.95;;;-0.50;99.00;;;;;;5071231;28;20124;-77
2021/04/07 01:30:45;;;;;;;9.85;1.35;;;-0.50;99.00;;;;;;5068520;28;20055;-76
2021/04/07 01:33:24;;;;;;;8.98;1.52;;;-0.50;99.20;;;;;;5073963;28;20142;-77
2021/04/07 01:35:51;;;;;;;19.20;2.13;;;-0.50;99.20;;;;;;5070592;28;20044;-77
2021/04/07 01:38:19;;;;;;;10.55;1.65;;;-0.40;99.10;;;;;;5074719;28;20083;-77
2021/04/07 01:40:46;;;;;;;14.95;2.72;;;-0.40;99.40;;;;;;5068209;28;20048;-77
2021/04/07 01:43:14;;;;;;;10.35;1.75;;;-0.30;99.30;;;;;;5074607;28;20042;-77
2021/04/07 01:45:41;;;;;;;14.63;1.50;;;-0.40;99.20;;;;;;5074567;28;20067;-77
2021/04/07 01:48:08;;;;;;;12.82;1.60;;;-0.30;99.30;;;;;;5073759;28;20049;-77
2021/04/07 01:50:35;;;;;;;14.23;1.80;;;-0.30;99.20;;;;;;5067538;28;20041;-77
2021/04/07 01:53:02;;;;;;;14.38;1.65;;;-0.30;99.20;;;;;;5067886;28;20397;-77
2021/04/07 01:55:28;;;;;;;8.70;1.25;;;-0.30;99.30;;;;;;5065717;28;20060;-77
2021/04/07 01:57:54;;;;;;;8.55;1.42;;;-0.20;99.40;;;;;;5080523;28;20113;-77
2021/04/07 02:00:20;;;;;;;15.85;1.63;;;-0.10;99.60;;;;;;5069441;28;20086;-77
2021/04/07 02:02:46;;;;;;;9.63;1.33;;;0.00;99.70;;;;;;5076647;28;20049;-77
2021/04/07 02:05:12;;;;;;;7.95;1.25;;;0.10;99.60;;;;;;5074886;28;20028;-77
2021/04/07 02:07:38;;;;;;;8.38;1.48;;;0.10;99.50;;;;;;5074045;28;20508;-77
2021/04/07 02:10:06;;;;;;;9.52;1.05;;;0.20;99.40;;;;;;5069791;28;20140;-77
2021/04/07 02:12:32;;;;;;;8.38;1.58;;;0.20;99.50;;;;;;5075635;28;20055;-77
2021/04/07 02:14:58;;;;;;;10.15;1.30;;;0.20;99.40;;;;;;5075496;28;20376;-77
2021/04/07 02:17:24;;;;;;;8.18;1.13;;;0.20;99.40;;;;;;5077850;28;20028;-77
2021/04/07 02:19:50;;;;;;;12.80;1.30;;;0.20;99.50;;;;;;5078586;28;20028;-77
2021/04/07 02:22:18;;;;;;;7.72;0.88;;;0.20;99.50;;;;;;5069032;28;20411;-77
2021/04/07 02:24:49;;;;;;;6.75;1.05;;;0.20;99.50;;;;;;5085549;28;20115;-77
2021/04/07 02:27:23;;;;;;;4.95;0.57;;;0.20;99.60;;;;;;5068660;28;20040;-77
2021/04/07 02:29:51;;;;;;;12.63;1.38;;;0.30;99.50;;;;;;5071972;28;20048;-77
2021/04/07 02:32:18;;;;;;;8.60;1.05;;;0.30;99.80;;;;;;5071082;28;20040;-77
2021/04/07 02:34:44;;;;;;;3.38;0.75;;;0.40;99.80;;;;;;5080656;28;20059;-78
2021/04/07 02:37:11;;;;;;;8.05;1.33;;;0.40;99.80;;;;;;5069911;28;20040;-77
2021/04/07 02:39:36;;;;;;;8.27;0.90;;;0.40;99.70;;;;;;5080718;28;20036;-77
2021/04/07 02:42:03;;;;;;;7.25;1.10;;;0.40;99.60;;;;;;5074651;28;20052;-77
2021/04/07 02:44:29;;;;;;;7.70;0.88;;;0.40;99.70;;;;;;5074613;28;20128;-77
2021/04/07 02:46:55;;;;;;;7.88;1.25;;;0.40;99.70;;;;;;5074314;28;20443;-77
2021/04/07 02:49:21;;;;;;;10.25;1.25;;;0.40;99.60;;;;;;5084107;28;20043;-77
2021/04/07 02:51:47;;;;;;;5.93;1.15;;;0.50;99.70;;;;;;5068487;28;20047;-79
2021/04/07 02:54:13;;;;;;;11.25;1.13;;;0.50;99.80;;;;;;5083965;28;20102;-78
2021/04/07 02:56:40;;;;;;;9.90;1.20;;;0.60;99.80;;;;;;5079702;28;20057;-79
2021/04/07 02:59:06;;;;;;;7.45;0.93;;;0.60;99.90;;;;;;5083273;28;20110;-79
2021/04/07 03:01:33;;;;;;;4.05;0.60;;;0.60;99.90;;;;;;5077676;28;20444;-78
2021/04/07 03:03:58;;;;;;;9.15;1.02;;;0.60;99.80;;;;;;5077543;28;20121;-78
2021/04/07 03:06:24;;;;;;;5.10;0.80;;;0.70;99.90;;;;;;5084083;28;20045;-78
2021/04/07 03:08:50;;;;;;;5.15;1.00;;;0.70;99.90;;;;;;5071150;28;20031;-78
2021/04/07 03:11:16;;;;;;;6.10;0.88;;;0.70;99.90;;;;;;5077143;28;20032;-78
2021/04/07 03:13:42;;;;;;;5.32;0.80;;;0.70;99.90;;;;;;5070341;28;20067;-78
2021/04/07 03:16:08;;;;;;;10.65;1.10;;;0.70;99.90;;;;;;5078177;28;20044;-78
2021/04/07 03:18:34;;;;;;;6.50;0.65;;;0.70;99.90;;;;;;5069295;28;20036;-78
2021/04/07 03:21:00;;;;;;;5.22;0.60;;;0.70;99.90;;;;;;5074871;28;20044;-79
2021/04/07 03:23:25;;;;;;;4.35;0.70;;;0.70;99.90;;;;;;5074334;28;20055;-79
2021/04/07 03:25:51;;;;;;;4.18;0.43;;;0.70;99.90;;;;;;5076424;28;20029;-78
2021/04/07 03:28:17;;;;;;;5.22;0.73;;;0.70;99.90;;;;;;5071839;28;20063;-79
2021/04/07 03:30:50;;;;;;;6.47;0.73;;;0.80;99.90;;;;;;5076258;28;20044;-79
2021/04/07 03:33:22;;;;;;;6.97;0.88;;;0.80;99.90;;;;;;5073773;28;20485;-79
2021/04/07 03:35:49;;;;;;;4.38;0.60;;;0.80;99.90;;;;;;5088057;28;20066;-79
2021/04/07 03:38:16;;;;;;;4.53;0.40;;;0.70;99.90;;;;;;5072854;28;20443;-79
2021/04/07 03:40:42;;;;;;;8.10;0.70;;;0.80;99.90;;;;;;5081727;28;20036;-79
2021/04/07 03:43:10;;;;;;;3.53;0.70;;;0.80;99.90;;;;;;5076142;28;20047;-78
2021/04/07 03:45:37;;;;;;;4.63;0.50;;;0.80;99.90;;;;;;5071417;28;20071;-79
2021/04/07 03:48:03;;;;;;;5.70;1.00;;;0.80;99.90;;;;;;5077503;28;20037;-78
2021/04/07 03:50:29;;;;;;;4.40;0.35;;;0.80;99.90;;;;;;5074133;28;20507;-79
2021/04/07 03:52:55;;;;;;;3.72;0.60;;;0.80;99.90;;;;;;5079557;28;20036;-78
2021/04/07 03:55:21;;;;;;;5.18;1.15;;;0.80;99.90;;;;;;5073499;28;20479;-77
2021/04/07 03:57:47;;;;;;;2.67;0.73;;;0.90;99.90;;;;;;5080173;28;20098;-77
2021/04/07 04:00:13;;;;;;;4.35;0.80;;;0.80;99.90;;;;;;5075637;28;20076;-77
2021/04/07 04:02:39;;;;;;;3.75;0.80;;;0.90;99.90;;;;;;5073288;28;20110;-77
2021/04/07 04:05:06;;;;;;;3.83;0.70;;;0.90;99.90;;;;;;5078349;28;20036;-77
2021/04/07 04:07:32;;;;;;;7.47;1.27;;;0.80;99.90;;;;;;5073053;28;20113;-78
2021/04/07 04:09:58;;;;;;;3.13;0.90;;;0.90;99.90;;;;;;5073267;28;20040;-77
2021/04/07 04:12:24;;;;;;;2.65;1.23;;;0.90;99.90;;;;;;5072555;28;20059;-77
2021/04/07 04:14:49;;;;;;;4.72;0.80;;;0.90;99.90;;;;;;5069537;28;20036;-77
2021/04/07 04:17:15;;;;;;;2.58;0.70;;;0.90;99.90;;;;;;5075038;28;20384;-77
2021/04/07 04:19:41;;;;;;;6.00;1.23;;;0.90;99.90;;;;;;5071622;28;20468;-77
2021/04/07 04:22:07;;;;;;;6.07;1.00;;;0.90;99.90;;;;;;5069186;28;20040;-78
2021/04/07 04:24:33;;;;;;;5.45;0.70;;;0.90;99.90;;;;;;5084074;28;20064;-77
2021/04/07 04:26:59;;;;;;;3.20;0.93;;;0.90;99.90;;;;;;5077451;28;20511;-77
2021/04/07 04:29:25;;;;;;;2.47;1.00;;;0.90;99.90;;;;;;5074973;28;20086;-77
2021/04/07 04:31:50;;;;;;;4.00;1.17;;;0.90;99.90;;;;;;5076657;28;20053;-77
2021/04/07 04:34:16;;;;;;;3.25;1.30;;;0.90;99.90;;;;;;5073445;28;20059;-78
2021/04/07 04:36:42;;;;;;;3.17;1.40;;;0.90;99.90;;;;;;5066468;28;20535;-77
2021/04/07 04:39:08;;;;;;;4.60;2.20;;;0.90;99.90;;;;;;5081918;28;20052;-77
2021/04/07 04:41:34;;;;;;;3.72;1.50;;;0.90;99.90;;;;;;5069692;28;20093;-77
2021/04/07 04:44:00;;;;;;;4.43;1.52;;;0.80;99.90;;;;;;5072106;28;20044;-77
2021/04/07 04:46:26;;;;;;;4.97;1.67;;;0.90;99.90;;;;;;5070577;28;20133;-77
2021/04/07 04:48:52;;;;;;;4.85;1.75;;;0.90;99.90;;;;;;5078283;28;20074;-78
2021/04/07 04:51:18;;;;;;;5.07;1.95;;;0.80;99.90;;;;;;5070178;28;20048;-77
2021/04/07 04:53:44;;;;;;;4.65;1.70;;;0.80;99.90;;;;;;5075963;28;20040;-77
2021/04/07 04:56:09;;;;;;;3.90;1.70;;;0.90;99.90;;;;;;5072101;28;20044;-77
2021/04/07 04:58:36;;;;;;;3.22;1.50;;;0.90;99.90;;;;;;5075592;28;20479;-78
2021/04/07 05:01:02;;;;;;;5.22;1.88;;;0.90;99.90;;;;;;5076057;28;20124;-78
2021/04/07 05:03:27;;;;;;;4.78;1.80;;;0.90;99.90;;;;;;5071361;28;20140;-78
2021/04/07 05:05:53;;;;;;;6.28;1.90;;;0.90;99.90;;;;;;5075717;28;20044;-79
2021/04/07 05:08:19;;;;;;;6.82;1.83;;;0.90;99.90;;;;;;5079302;28;20040;-78
2021/04/07 05:10:46;;;;;;;4.35;1.60;;;1.00;99.90;;;;;;5073923;28;20105;-78
2021/04/07 05:13:12;;;;;;;10.13;2.20;;;1.00;99.90;;;;;;5074593;28;20055;-78
2021/04/07 05:15:38;;;;;;;4.75;1.63;;;1.00;99.90;;;;;;5072828;28;20052;-79
2021/04/07 05:18:18;;;;;;;7.82;1.90;;;1.00;99.90;;;;;;5069422;28;20064;-78
2021/04/07 05:20:47;;;;;;;8.23;1.98;;;1.10;99.90;;;;;;5073430;28;20068;-78
2021/04/07 05:23:13;;;;;;;7.45;1.67;;;1.10;99.90;;;;;;5070641;28;20649;-78
2021/04/07 05:25:38;;;;;;;7.65;2.20;;;1.20;99.90;;;;;;5082459;28;20067;-78
2021/04/07 05:28:08;;;;;;;9.20;2.42;;;1.20;99.90;;;;;;5066669;28;20140;-79
2021/04/07 05:33:51;;;;;;;7.55;2.95;;;1.20;99.90;;;;;;5075956;28;20037;-79
2021/04/07 05:36:20;;;;;;;7.20;2.22;;;1.30;99.90;;;;;;5079981;28;20350;-77
2021/04/07 05:38:46;;;;;;;7.22;1.55;;;1.30;99.90;;;;;;5076442;28;20055;-76
2021/04/07 05:41:11;;;;;;;7.80;2.13;;;1.40;99.90;;;;;;5073665;28;20059;-76
2021/04/07 05:43:39;;;;;;;6.13;1.60;;;1.50;99.90;;;;;;5069485;28;20127;-76
2021/04/07 05:46:06;;;;;;;6.70;1.77;;;1.50;99.90;;;;;;5077165;28;20524;-78
2021/04/07 05:48:32;;;;;;;7.20;2.00;;;1.60;99.90;;;;;;5071249;28;20048;-78
2021/04/07 05:50:58;;;;;;;6.47;1.50;;;1.60;99.90;;;;;;5082385;28;20045;-77
2021/04/07 05:53:23;;;;;;;7.63;1.85;;;1.60;99.90;;;;;;5075238;28;20041;-77
2021/04/07 05:55:52;;;;;;;8.07;2.00;;;1.60;99.90;;;;;;5075298;28;20471;-78
2021/04/07 05:58:19;;;;;;;7.53;2.08;;;1.70;99.90;;;;;;5074279;28;20032;-79
2021/04/07 06:00:47;;;;;;;6.82;2.10;;;1.70;99.90;;;;;;5071440;28;20048;-80
2021/04/07 06:03:13;;;;;;;6.47;1.77;;;1.70;99.90;;;;;;5085074;28;20048;-79
2021/04/07 06:05:41;;;;;;;8.75;2.25;;;1.80;99.90;;;;;;5070228;28;20077;-82
2021/04/07 06:08:08;;;;;;;8.63;2.00;;;1.90;99.90;;;;;;5084334;28;20044;-77
2021/04/07 06:10:37;;;;;;;6.88;2.17;;;1.90;99.90;;;;;;5071209;28;20064;-76
2021/04/07 06:13:03;;;;;;;11.27;2.13;;;2.00;99.90;;;;;;5080298;28;20045;-77
2021/04/07 06:15:30;;;;;;;7.47;1.70;;;2.00;99.90;;;;;;5068546;28;20044;-77
2021/04/07 06:18:00;;;;;;;7.10;1.92;;;2.00;99.90;;;;;;5075965;28;20399;-77
2021/04/07 06:20:28;;;;;;;6.72;1.77;;;2.10;99.90;;;;;;5077252;28;20068;-77
2021/04/07 06:22:55;;;;;;;6.85;2.13;;;2.20;99.90;;;;;;5076354;28;20089;-77
2021/04/07 06:25:21;;;;;;;12.40;2.30;;;2.20;99.90;;;;;;5067358;28;20040;-78
2021/04/07 06:27:54;;;;;;;9.27;2.80;;;2.30;99.90;;;;;;5078428;28;20035;-77
2021/04/07 06:30:24;;;;;;;10.18;3.13;;;2.40;99.90;;;;;;5074653;28;20036;-77
2021/04/07 06:32:50;;;;;;;13.60;3.00;;;2.40;99.90;;;;;;5081064;28;20040;-78
2021/04/07 06:35:16;;;;;;;9.13;2.35;;;2.60;99.90;;;;;;5071424;28;20106;-78
2021/04/07 06:37:42;;;;;;;10.98;3.55;;;2.70;99.90;;;;;;5082402;28;20468;-78
2021/04/07 06:40:09;;;;;;;13.07;3.60;;;2.80;99.90;;;;;;5083786;28;20122;-78
2021/04/07 06:42:40;;;;;;;23.77;4.63;;;2.90;99.90;;;;;;5072386;28;20060;-78
2021/04/07 06:45:06;;;;;;;10.82;3.63;;;3.20;99.90;;;;;;5079457;28;20071;-77
2021/04/07 06:47:34;;;;;;;8.82;3.08;;;3.50;99.90;;;;;;5077291;28;20090;-77
2021/04/07 06:50:00;;;;;;;13.50;3.55;;;3.60;99.90;;;;;;5081035;28;20056;-78
2021/04/07 06:52:26;;;;;;;125.63;11.27;;;3.50;99.90;;;;;;5069295;28;20052;-77
2021/04/07 06:54:54;;;;;;;14.77;3.45;;;3.60;99.90;;;;;;5085253;28;20055;-77
2021/04/07 06:57:20;;;;;;;32.63;4.97;;;3.80;99.90;;;;;;5077340;28;20052;-77
2021/04/07 06:59:48;;;;;;;28.65;6.43;;;4.00;99.90;;;;;;5085261;28;20051;-77
2021/04/07 07:02:15;;;;;;;16.85;5.18;;;4.20;99.90;;;;;;5075036;28;20065;-77
2021/04/07 07:04:43;;;;;;;11.68;2.78;;;4.50;99.90;;;;;;5085277;28;20041;-77
2021/04/07 07:07:09;;;;;;;19.92;4.65;;;4.70;99.90;;;;;;5074122;28;20060;-77
2021/04/07 07:09:34;;;;;;;134.85;11.00;;;4.90;99.60;;;;;;5074652;28;20424;-77
2021/04/07 07:12:01;;;;;;;15.63;3.92;;;5.20;99.50;;;;;;5071386;28;20120;-77
2021/04/07 07:14:27;;;;;;;10.18;2.67;;;5.50;99.10;;;;;;5081323;28;20500;-77
2021/04/07 07:16:54;;;;;;;11.05;3.00;;;5.70;98.70;;;;;;5071182;28;20044;-77
2021/04/07 07:19:27;;;;;;;15.05;3.03;;;6.00;98.30;;;;;;5072411;28;20506;-77
2021/04/07 07:21:55;;;;;;;18.77;2.67;;;6.20;97.40;;;;;;5078541;28;20033;-77
2021/04/07 07:24:28;;;;;;;13.82;2.45;;;6.30;97.40;;;;;;5086485;28;20451;-77
2021/04/07 07:26:55;;;;;;;9.20;1.65;;;6.50;96.80;;;;;;5082445;28;20095;-77
2021/04/07 07:29:29;;;;;;;20.73;2.92;;;6.70;95.80;;;;;;5067006;28;20071;-77
2021/04/07 07:32:25;;;;;;;10.52;1.60;;;6.80;95.70;;;;;;5078124;28;20115;-78
2021/04/07 07:34:51;;;;;;;8.98;1.45;;;7.00;95.10;;;;;;5069516;28;20052;-77
2021/04/07 07:37:24;;;;;;;11.02;2.15;;;7.10;94.70;;;;;;5084461;28;20067;-77
2021/04/07 07:39:50;;;;;;;13.30;2.00;;;7.10;93.20;;;;;;5067852;28;20098;-77
2021/04/07 07:42:17;;;;;;;13.75;2.30;;;7.30;93.40;;;;;;5074330;28;20040;-77
2021/04/07 07:44:43;;;;;;;10.07;1.77;;;7.40;92.70;;;;;;5079166;28;20090;-76
2021/04/07 07:47:23;;;;;;;12.20;1.73;;;7.40;93.20;;;;;;5075638;28;20399;-76
2021/04/07 07:49:57;;;;;;;10.35;2.20;;;7.30;93.20;;;;;;5071325;28;20051;-76
2021/04/07 07:52:35;;;;;;;12.57;2.42;;;7.00;93.30;;;;;;5077704;28;20052;-76
2021/04/07 07:55:13;;;;;;;13.63;2.50;;;6.90;94.10;;;;;;5069626;28;20131;-76
2021/04/07 07:57:38;;;;;;;10.70;1.83;;;6.70;94.30;;;;;;5084423;28;20081;-77
2021/04/07 08:00:11;;;;;;;19.70;3.38;;;6.60;95.00;;;;;;5075937;28;20115;-78
2021/04/07 08:02:38;;;;;;;8.98;2.03;;;6.60;95.30;;;;;;5082193;28;20487;-77
2021/04/07 08:05:25;;;;;;;11.63;2.20;;;6.40;94.90;;;;;;5065548;28;20725;-77
2021/04/07 08:07:52;;;;;;;10.77;2.10;;;6.30;94.30;;;;;;5074253;28;20037;-77
2021/04/07 08:10:18;;;;;;;8.98;1.40;;;6.00;95.20;;;;;;5069028;28;20636;-77
2021/04/07 08:12:45;;;;;;;2.50;0.50;;;6.00;95.60;;;;;;5072767;28;20119;-77
2021/04/07 08:15:12;;;;;;;3.78;0.43;;;5.80;94.70;;;;;;5066538;28;20044;-77
2021/04/07 08:17:38;;;;;;;5.05;0.65;;;5.50;95.60;;;;;;5078284;28;20040;-77
2021/04/07 08:20:06;;;;;;;4.13;0.63;;;5.40;95.90;;;;;;5077870;28;20052;-78
2021/04/07 08:22:34;;;;;;;9.32;1.38;;;5.30;96.30;;;;;;5077717;28;20067;-78
2021/04/07 08:25:02;;;;;;;7.90;1.15;;;5.30;96.60;;;;;;5075639;28;20043;-78
2021/04/07 08:27:29;;;;;;;5.72;1.02;;;5.50;96.80;;;;;;5083266;28;20451;-78
2021/04/07 08:29:55;;;;;;;6.45;1.55;;;5.50;96.80;;;;;;5078740;28;20115;-78
2021/04/07 08:32:22;;;;;;;6.00;0.85;;;5.60;96.40;;;;;;5075716;28;20031;-78
2021/04/07 08:34:49;;;;;;;8.30;1.08;;;5.80;96.50;;;;;;5072611;28;20048;-78
2021/04/07 08:37:25;;;;;;;6.50;1.13;;;6.00;96.30;;;;;;5088326;28;20040;-78
2021/04/07 08:39:51;;;;;;;11.30;1.13;;;6.10;96.10;;;;;;5067434;28;20044;-78
2021/04/07 08:42:17;;;;;;;6.28;1.08;;;6.20;96.10;;;;;;5073125;28;20090;-78
2021/04/07 08:44:45;;;;;;;12.38;1.92;;;6.20;95.80;;;;;;5072906;28;20111;-78
2021/04/07 08:47:33;;;;;;;9.45;1.60;;;6.10;95.60;;;;;;5076531;28;20070;-78
2021/04/07 08:50:05;;;;;;;14.18;1.92;;;6.10;96.00;;;;;;5072002;28;20037;-78
2021/04/07 08:52:41;;;;;;;9.43;1.20;;;6.00;96.10;;;;;;5066303;28;20098;-78
2021/04/07 08:55:14;;;;;;;8.57;1.77;;;6.00;96.30;;;;;;5074217;28;20040;-78
2021/04/07 08:57:41;;;;;;;12.77;1.63;;;5.90;96.40;;;;;;5077674;28;20070;-78
2021/04/07 09:00:15;;;;;;;11.07;2.25;;;5.80;96.50;;;;;;5085772;28;20476;-78
2021/04/07 09:02:52;;;;;;;18.25;2.55;;;5.80;96.70;;;;;;5066838;28;20053;-77
2021/04/07 09:05:52;;;;;;;17.17;3.08;;;5.80;96.80;;;;;;5077560;28;20037;-77
2021/04/07 09:08:24;;;;;;;16.40;3.22;;;5.90;97.10;;;;;;5078555;28;20048;-77
2021/04/07 09:10:57;;;;;;;19.75;3.55;;;6.00;96.90;;;;;;5088239;28;20036;-77
2021/04/07 09:13:29;;;;;;;18.50;3.60;;;6.10;96.40;;;;;;5071936;28;20057;-77
2021/04/07 09:16:03;;;;;;;18.33;4.50;;;6.50;96.60;;;;;;5082060;28;20032;-79
2021/04/07 09:18:41;;;;;;;17.35;2.88;;;6.70;96.00;;;;;;5068014;28;20048;-79
2021/04/07 09:21:20;;;;;;;17.27;2.10;;;6.90;94.30;;;;;;5090879;28;20047;-79
2021/04/07 09:23:51;;;;;;;17.15;2.88;;;6.80;92.80;;;;;;5082170;28;20044;-78
2021/04/07 09:26:19;;;;;;;18.60;3.08;;;6.70;93.20;;;;;;5080044;28;20032;-78
2021/04/07 09:28:47;;;;;;;15.55;2.67;;;6.60;93.50;;;;;;5071796;28;20598;-78
2021/04/07 09:31:17;;;;;;;17.00;3.33;;;6.70;93.90;;;;;;5074036;28;20044;-77
2021/04/07 09:33:45;;;;;;;20.23;4.40;;;7.00;94.10;;;;;;5080513;28;20060;-78
2021/04/07 09:36:12;;;;;;;20.83;3.33;;;7.10;94.00;;;;;;5081860;28;20044;-78
2021/04/07 09:38:46;;;;;;;20.67;4.00;;;7.40;93.20;;;;;;5077021;28;20040;-78
2021/04/07 09:41:18;;;;;;;15.75;2.85;;;7.40;92.20;;;;;;5087388;28;20518;-78
2021/04/07 09:43:45;;;;;;;13.82;2.55;;;7.30;91.90;;;;;;5075978;28;20064;-78
2021/04/07 09:46:11;;;;;;;21.55;3.75;;;7.30;90.90;;;;;;5077053;28;20430;-79
2021/04/07 09:48:50;;;;;;;13.00;2.42;;;7.20;91.00;;;;;;5073394;28;20046;-78
2021/04/07 09:51:44;;;;;;;16.27;3.13;;;6.90;91.20;;;;;;5080131;28;20571;-78
2021/04/07 09:54:31;;;;;;;15.80;2.70;;;6.70;91.30;;;;;;5081665;28;20714;-77
2021/04/07 09:57:00;;;;;;;17.98;3.97;;;6.70;91.60;;;;;;5095369;27;20452;-77
2021/04/07 09:59:36;;;;;;;17.27;3.45;;;6.80;91.20;;;;;;5075784;28;20036;-78
2021/04/07 10:02:03;;;;;;;17.20;2.83;;;7.00;91.00;;;;;;5091769;28;20080;-77
2021/04/07 10:04:32;;;;;;;14.57;2.83;;;7.20;90.90;;;;;;5072525;28;20401;-78
2021/04/07 10:07:12;;;;;;;18.70;2.85;;;7.30;88.70;;;;;;5079548;28;20123;-77
2021/04/07 10:09:44;;;;;;;18.48;2.65;;;7.40;88.10;;;;;;5074710;28;20600;-77
2021/04/07 10:12:11;;;;;;;16.65;3.22;;;7.30;88.60;;;;;;5078671;28;20173;-77
2021/04/07 10:14:37;;;;;;;15.70;1.70;;;7.30;89.90;;;;;;5084590;28;20052;-76
2021/04/07 10:17:17;;;;;;;11.43;1.85;;;7.20;88.60;;;;;;5075742;28;20124;-77
2021/04/07 10:19:44;;;;;;;13.90;2.13;;;7.10;86.90;;;;;;5070900;28;20036;-77
2021/04/07 10:22:16;;;;;;;16.23;2.75;;;7.00;87.50;;;;;;5074998;28;20064;-78
2021/04/07 10:24:43;;;;;;;8.20;1.70;;;7.10;85.40;;;;;;5070602;28;20103;-77
2021/04/07 10:27:15;;;;;;;11.85;2.05;;;7.30;83.90;;;;;;5073579;28;20047;-77
2021/04/07 10:29:41;;;;;;;11.70;2.13;;;7.40;81.80;;;;;;5070445;28;20051;-76
2021/04/07 10:32:17;;;;;;;9.23;1.88;;;7.30;81.80;;;;;;5074434;28;20033;-76
2021/04/07 10:34:45;;;;;;;16.20;2.42;;;7.40;82.90;;;;;;5080073;28;20452;-76
2021/04/07 10:37:12;;;;;;;17.08;2.88;;;7.50;83.10;;;;;;5083324;28;20460;-76
2021/04/07 10:39:39;;;;;;;5.32;0.98;;;7.60;82.70;;;;;;5074374;28;20131;-76
2021/04/07 10:42:09;;;;;;;5.90;1.27;;;7.50;83.40;;;;;;5075464;28;20047;-76
2021/04/07 10:44:35;;;;;;;7.53;1.15;;;7.30;80.10;;;;;;5074050;28;20037;-77
2021/04/07 10:47:01;;;;;;;6.93;1.38;;;7.20;83.20;;;;;;5075240;28;20409;-77
2021/04/07 10:49:27;;;;;;;15.30;2.67;;;7.30;84.30;;;;;;5081459;28;20035;-76
2021/04/07 10:52:03;;;;;;;14.98;2.45;;;7.70;85.10;;;;;;5081695;28;20060;-78
2021/04/07 10:54:29;;;;;;;12.15;2.55;;;8.00;85.70;;;;;;5072832;28;20086;-77
2021/04/07 10:57:09;;;;;;;12.90;2.83;;;8.20;83.40;;;;;;5072202;28;20028;-77
2021/04/07 10:59:38;;;;;;;11.07;2.47;;;8.10;82.80;;;;;;5075867;28;20068;-78
2021/04/07 11:02:14;;;;;;;12.25;2.50;;;7.70;81.90;;;;;;5068731;28;20040;-77
2021/04/07 11:04:40;;;;;;;15.85;2.33;;;7.40;83.20;;;;;;5072374;28;20051;-77
2021/04/07 11:07:11;;;;;;;13.95;2.80;;;7.20;84.70;;;;;;5072761;28;20028;-77
2021/04/07 11:09:46;;;;;;;9.40;1.90;;;6.90;86.30;;;;;;5076819;28;20036;-77
2021/04/07 11:12:16;;;;;;;9.77;1.67;;;6.60;87.20;;;;;;5071159;28;20036;-77
2021/04/07 11:14:54;;;;;;;8.00;1.40;;;6.10;90.40;;;;;;5081620;28;20451;-82
2021/04/07 11:17:20;;;;;;;9.57;1.40;;;5.60;91.80;;;;;;5078168;28;20040;-76
2021/04/07 11:19:46;;;;;;;9.07;1.65;;;5.20;92.40;;;;;;5078622;28;20045;-76
2021/04/07 11:22:13;;;;;;;7.78;1.65;;;5.00;93.00;;;;;;5071650;28;20094;-78
2021/04/07 11:24:38;;;;;;;6.43;1.42;;;5.00;93.40;;;;;;5084075;28;20135;-76
2021/04/07 11:27:08;;;;;;;11.85;1.90;;;5.10;92.90;;;;;;5069915;28;20111;-77
2021/04/07 11:29:37;;;;;;;11.25;1.63;;;5.20;93.20;;;;;;5080998;28;20044;-76
2021/04/07 11:32:05;;;;;;;15.00;2.38;;;5.30;93.00;;;;;;5072223;28;20066;-76
2021/04/07 11:35:11;;;;;;;10.70;1.75;;;5.50;93.40;;;;;;5074752;28;20045;-76
2021/04/07 11:37:35;;;;;;;9.90;1.40;;;5.70;92.80;;;;;;5070771;28;20053;-77
2021/04/07 11:40:06;;;;;;;7.97;1.25;;;5.80;91.80;;;;;;5075165;28;20353;-77
2021/04/07 11:42:46;;;;;;;12.32;1.63;;;5.90;91.90;;;;;;5072424;28;20521;-76
2021/04/07 11:45:15;;;;;;;10.13;1.33;;;5.70;91.60;;;;;;5081953;28;20403;-76
2021/04/07 11:47:43;;;;;;;7.32;1.48;;;5.70;92.20;;;;;;5070094;28;20040;-76
2021/04/07 11:50:10;;;;;;;11.65;2.03;;;5.80;92.50;;;;;;5087685;28;20029;-76
2021/04/07 11:52:38;;;;;;;7.95;1.63;;;5.90;92.20;;;;;;5079329;28;20457;-76
2021/04/07 11:55:05;;;;;;;9.85;1.63;;;6.00;91.80;;;;;;5084992;28;20054;-76
2021/04/07 11:57:32;;;;;;;14.07;2.42;;;6.20;91.80;;;;;;5068923;28;20045;-76
2021/04/07 11:59:58;;;;;;;13.45;2.90;;;6.40;91.50;;;;;;5081568;28;20122;-76
2021/04/07 12:02:24;;;;;;;13.55;2.65;;;6.40;90.40;;;;;;5065613;28;20111;-76
2021/04/07 12:04:52;;;;;;;15.38;3.47;;;6.60;90.40;;;;;;5076028;28;20037;-76
2021/04/07 12:07:18;;;;;;;12.38;2.78;;;6.80;90.40;;;;;;5076930;28;20078;-76
2021/04/07 12:09:45;;;;;;;15.82;2.88;;;6.80;88.30;;;;;;5066456;28;20385;-76
2021/04/07 12:12:11;;;;;;;14.25;2.50;;;6.80;88.80;;;;;;5073599;28;20059;-77
2021/04/07 12:14:37;;;;;;;11.15;2.15;;;6.60;87.40;;;;;;5070665;28;20136;-76
2021/04/07 12:17:06;;;;;;;12.82;3.25;;;6.30;88.90;;;;;;5076107;28;20111;-78
2021/04/07 12:19:31;;;;;;;13.18;1.98;;;6.00;90.80;;;;;;5068668;28;20132;-77
2021/04/07 12:21:57;;;;;;;19.13;3.00;;;5.90;91.90;;;;;;5074462;28;20115;-78
2021/04/07 12:24:23;;;;;;;23.23;2.75;;;5.70;92.40;;;;;;5068677;28;20062;-79
2021/04/07 12:26:49;;;;;;;11.63;2.53;;;5.60;93.00;;;;;;5088810;28;20048;-78
2021/04/07 12:29:15;;;;;;;9.52;1.50;;;5.50;92.30;;;;;;5072437;28;20068;-77
2021/04/07 12:31:41;;;;;;;13.15;2.55;;;5.40;92.40;;;;;;5074355;28;20108;-77
2021/04/07 12:34:07;;;;;;;11.45;2.00;;;5.40;92.20;;;;;;5070206;28;20105;-80
2021/04/07 12:36:36;;;;;;;15.52;2.90;;;5.40;91.90;;;;;;5074742;28;20098;-79
2021/04/07 12:39:03;;;;;;;11.23;1.88;;;5.60;91.40;;;;;;5078884;28;20381;-78
2021/04/07 12:44:08;;;;;;;14.98;2.30;;;6.00;90.40;;;;;;5071825;28;20530;-78
2021/04/07 12:46:37;;;;;;;13.38;3.20;;;6.20;90.60;;;;;;5074200;28;20606;-78
2021/04/07 12:49:06;;;;;;;12.32;2.35;;;6.40;87.80;;;;;;5077942;28;20044;-78
2021/04/07 12:51:32;;;;;;;12.93;2.08;;;6.50;86.90;;;;;;5079210;28;20154;-77
2021/04/07 12:53:58;;;;;;;12.50;1.63;;;6.70;87.30;;;;;;5070521;28;20621;-79
2021/04/07 12:56:24;;;;;;;13.02;2.13;;;6.80;86.00;;;;;;5075209;28;20135;-78
2021/04/07 12:58:50;;;;;;;5.05;0.80;;;6.80;84.40;;;;;;5078141;28;20231;-76
2021/04/07 13:01:17;;;;;;;10.45;2.15;;;6.60;80.70;;;;;;5074119;28;20048;-78